createdAt,value
2023-05-21T00:01:25.968Z,5.25
2023-05-21T00:03:53.540Z,5.13
2023-05-21T00:06:21.324Z,5.72
2023-05-21T00:08:48.238Z,5.05
2023-05-21T00:11:15.122Z,5.00
2023-05-21T00:13:45.047Z,5.13
2023-05-21T00:16:12.033Z,5.97
2023-05-21T00:18:40.655Z,5.32
2023-05-21T00:21:07.830Z,5.85
2023-05-21T00:23:36.754Z,5.70
2023-05-21T00:26:03.704Z,5.40
2023-05-21T00:28:30.550Z,5.20
2023-05-21T00:30:57.388Z,5.43
2023-05-21T00:33:26.744Z,5.57
2023-05-21T00:35:53.706Z,5.60
2023-05-21T00:38:20.579Z,5.18
2023-05-21T00:40:47.574Z,5.85
2023-05-21T00:43:14.566Z,5.53
2023-05-21T00:45:47.741Z,5.97
2023-05-21T00:48:15.010Z,4.57
2023-05-21T00:50:42.160Z,4.45
2023-05-21T00:53:09.907Z,5.00
2023-05-21T00:55:40.341Z,4.93
2023-05-21T00:58:08.570Z,4.75
2023-05-21T01:00:37.671Z,4.97
2023-05-21T01:03:05.400Z,5.53
2023-05-21T01:05:32.800Z,5.25
2023-05-21T01:08:00.002Z,4.95
2023-05-21T01:10:27.493Z,4.78
2023-05-21T01:12:57.669Z,6.15
2023-05-21T01:15:25.136Z,6.18
2023-05-21T01:17:52.323Z,5.40
2023-05-21T01:20:20.790Z,5.88
2023-05-21T01:22:57.301Z,5.20
2023-05-21T01:25:25.051Z,5.30
2023-05-21T01:27:52.525Z,5.60
2023-05-21T01:30:21.469Z,6.63
2023-05-21T01:33:23.571Z,5.25
2023-05-21T01:36:05.033Z,5.63
2023-05-21T01:38:42.178Z,5.65
2023-05-21T01:41:12.266Z,5.13
2023-05-21T01:43:42.863Z,6.03
2023-05-21T01:46:13.472Z,5.15
2023-05-21T01:48:41.977Z,5.68
2023-05-21T01:51:09.093Z,5.63
2023-05-21T01:53:38.935Z,5.35
2023-05-21T01:56:06.596Z,5.63
2023-05-21T01:58:33.466Z,6.18
2023-05-21T02:01:00.315Z,5.38
2023-05-21T02:03:31.334Z,6.32
2023-05-21T02:05:58.390Z,4.90
2023-05-21T02:08:25.724Z,5.43
2023-05-21T02:10:52.616Z,6.07
2023-05-21T02:13:26.021Z,5.18
2023-05-21T02:15:55.176Z,5.93
2023-05-21T02:18:22.387Z,6.10
2023-05-21T02:20:49.377Z,5.68
2023-05-21T02:23:16.372Z,5.93
2023-05-21T02:25:44.140Z,5.75
2023-05-21T02:28:11.040Z,5.53
2023-05-21T02:30:37.904Z,5.28
2023-05-21T02:33:04.897Z,6.50
2023-05-21T02:35:32.479Z,6.43
2023-05-21T02:37:59.627Z,5.93
2023-05-21T02:40:26.729Z,6.45
2023-05-21T02:42:53.617Z,5.53
2023-05-21T02:45:20.602Z,5.45
2023-05-21T02:47:47.594Z,5.57
2023-05-21T02:50:15.148Z,5.28
2023-05-21T02:52:42.174Z,5.63
2023-05-21T02:55:09.864Z,6.28
2023-05-21T02:57:36.783Z,6.03
2023-05-21T03:00:06.288Z,6.53
2023-05-21T03:02:33.294Z,5.13
2023-05-21T03:05:00.859Z,6.35
2023-05-21T03:07:27.769Z,5.70
2023-05-21T03:09:54.796Z,6.22
2023-05-21T03:12:21.667Z,6.45
2023-05-21T03:14:51.544Z,5.63
2023-05-21T03:17:19.167Z,5.40
2023-05-21T03:19:46.078Z,5.55
2023-05-21T03:22:12.924Z,5.25
2023-05-21T03:24:40.164Z,6.63
2023-05-21T03:27:07.746Z,5.85
2023-05-21T03:29:35.254Z,5.97
2023-05-21T03:32:02.833Z,5.63
2023-05-21T03:34:30.373Z,4.50
2023-05-21T03:36:57.252Z,5.40
2023-05-21T03:39:24.148Z,6.10
2023-05-21T03:41:51.358Z,5.55
2023-05-21T03:44:18.271Z,6.05
2023-05-21T03:46:45.863Z,5.97
2023-05-21T03:49:13.951Z,5.72
2023-05-21T03:51:40.821Z,5.78
2023-05-21T03:54:07.677Z,6.00
2023-05-21T03:56:34.609Z,5.93
2023-05-21T03:59:01.714Z,6.70
2023-05-21T04:01:28.757Z,6.18
2023-05-21T04:03:56.082Z,5.93
2023-05-21T04:06:23.086Z,5.80
2023-05-21T04:08:50.478Z,6.50
2023-05-21T04:11:17.366Z,5.05
2023-05-21T04:13:44.246Z,4.75
2023-05-21T04:16:14.837Z,5.68
2023-05-21T04:18:44.148Z,5.80
2023-05-21T04:21:12.637Z,6.13
2023-05-21T04:23:39.786Z,5.40
2023-05-21T04:26:07.816Z,5.60
2023-05-21T04:28:35.617Z,5.75
2023-05-21T04:31:02.865Z,7.10
2023-05-21T04:33:30.550Z,5.43
2023-05-21T04:35:58.106Z,6.07
2023-05-21T04:38:26.177Z,5.85
2023-05-21T04:40:53.195Z,5.60
2023-05-21T04:43:25.748Z,6.80
2023-05-21T04:45:56.542Z,6.45
2023-05-21T04:48:25.102Z,5.60
2023-05-21T04:50:53.744Z,6.10
2023-05-21T04:53:20.972Z,6.25
2023-05-21T04:55:48.202Z,6.38
2023-05-21T04:58:18.073Z,6.13
2023-05-21T05:00:47.255Z,6.93
2023-05-21T05:03:14.776Z,6.82
2023-05-21T05:05:42.194Z,6.40
2023-05-21T05:08:09.118Z,7.65
2023-05-21T05:10:36.475Z,6.53
2023-05-21T05:13:03.745Z,7.15
2023-05-21T05:15:30.613Z,6.00
2023-05-21T05:17:57.512Z,7.13
2023-05-21T05:20:24.386Z,7.20
2023-05-21T05:22:51.433Z,8.50
2023-05-21T05:25:18.497Z,10.32
2023-05-21T05:27:45.379Z,9.40
2023-05-21T05:30:12.573Z,8.40
2023-05-21T05:32:39.511Z,7.22
2023-05-21T05:35:07.644Z,6.80
2023-05-21T05:37:34.642Z,7.78
2023-05-21T05:40:01.522Z,8.80
2023-05-21T05:42:28.532Z,7.55
2023-05-21T05:44:56.077Z,7.32
2023-05-21T05:47:22.970Z,8.50
2023-05-21T05:49:49.883Z,7.43
2023-05-21T05:52:16.842Z,7.15
2023-05-21T05:54:43.712Z,7.80
2023-05-21T05:57:10.571Z,7.03
2023-05-21T05:59:37.430Z,6.88
2023-05-21T06:02:04.482Z,7.28
2023-05-21T06:04:31.419Z,6.47
2023-05-21T06:06:58.744Z,7.63
2023-05-21T06:09:27.019Z,7.43
2023-05-21T06:11:53.865Z,7.70
2023-05-21T06:14:26.427Z,8.43
2023-05-21T06:16:53.281Z,8.32
2023-05-21T06:19:20.293Z,8.80
2023-05-21T06:21:47.510Z,7.97
2023-05-21T06:24:14.441Z,8.90
2023-05-21T06:26:42.146Z,7.28
2023-05-21T06:29:09.134Z,9.18
2023-05-21T06:31:36.098Z,8.30
2023-05-21T06:34:03.029Z,8.55
2023-05-21T06:36:30.390Z,11.35
2023-05-21T06:38:57.465Z,9.13
2023-05-21T06:41:24.623Z,10.05
2023-05-21T06:43:51.748Z,9.88
2023-05-21T06:46:18.758Z,9.45
2023-05-21T06:48:46.646Z,9.55
2023-05-21T06:51:13.706Z,10.25
2023-05-21T06:53:40.759Z,9.60
2023-05-21T06:56:07.810Z,11.05
2023-05-21T06:58:34.732Z,10.15
2023-05-21T07:01:01.986Z,9.30
2023-05-21T07:03:29.047Z,10.50
2023-05-21T07:05:57.159Z,10.35
2023-05-21T07:08:24.412Z,12.10
2023-05-21T07:10:51.323Z,12.63
2023-05-21T07:13:18.180Z,11.98
2023-05-21T07:15:45.047Z,12.10
2023-05-21T07:19:33.433Z,10.88
2023-05-21T07:22:00.305Z,12.10
2023-05-21T07:24:28.178Z,11.70
2023-05-21T07:26:55.130Z,10.65
2023-05-21T07:29:22.025Z,10.23
2023-05-21T07:31:48.891Z,12.95
2023-05-21T07:34:16.307Z,10.50
2023-05-21T07:36:43.158Z,10.18
2023-05-21T07:39:10.123Z,11.15
2023-05-21T07:41:37.002Z,11.13
2023-05-21T07:44:04.015Z,10.00
2023-05-21T07:46:30.915Z,10.40
2023-05-21T07:48:57.914Z,11.38
2023-05-21T07:51:24.824Z,10.18
2023-05-21T07:53:53.222Z,11.15
2023-05-21T07:56:21.992Z,10.07
2023-05-21T07:58:49.208Z,10.68
2023-05-21T08:01:16.160Z,9.90
2023-05-21T08:03:43.148Z,10.48
2023-05-21T08:06:10.164Z,11.75
2023-05-21T08:08:36.995Z,11.75
2023-05-21T08:11:03.893Z,10.82
2023-05-21T08:13:30.829Z,11.88
2023-05-21T08:15:57.848Z,11.27
2023-05-21T08:18:25.584Z,11.32
2023-05-21T08:20:52.518Z,12.15
2023-05-21T08:23:19.392Z,12.43
2023-05-21T08:25:46.504Z,11.70
2023-05-21T08:28:13.384Z,11.20
2023-05-21T08:30:40.363Z,12.52
2023-05-21T08:33:07.277Z,10.10
2023-05-21T08:35:34.311Z,10.85
2023-05-21T08:38:01.445Z,12.15
2023-05-21T08:40:28.405Z,10.27
2023-05-21T08:42:55.300Z,10.95
2023-05-21T08:45:23.862Z,10.05
2023-05-21T08:47:59.905Z,10.30
2023-05-21T08:50:28.482Z,10.73
2023-05-21T08:52:55.738Z,10.32
2023-05-21T08:55:23.763Z,10.13
2023-05-21T08:57:51.200Z,10.68
2023-05-21T09:00:18.378Z,11.50
2023-05-21T09:02:46.632Z,9.85
2023-05-21T09:05:15.750Z,10.02
2023-05-21T09:08:03.336Z,9.55
2023-05-21T09:10:37.195Z,9.77
2023-05-21T09:13:04.686Z,9.60
2023-05-21T09:15:32.021Z,8.13
2023-05-21T09:17:58.975Z,8.55
2023-05-21T09:20:27.728Z,8.45
2023-05-21T09:22:55.760Z,8.57
2023-05-21T09:25:29.629Z,6.97
2023-05-21T09:27:57.134Z,7.85
2023-05-21T09:30:26.821Z,6.30
2023-05-21T09:33:00.123Z,7.03
2023-05-21T09:35:27.323Z,6.95
2023-05-21T09:37:54.549Z,5.78
2023-05-21T09:40:24.111Z,4.68
2023-05-21T09:42:53.702Z,6.28
2023-05-21T09:45:21.140Z,5.35
2023-05-21T09:47:49.977Z,5.47
2023-05-21T09:50:28.004Z,4.60
2023-05-21T09:52:56.022Z,4.20
2023-05-21T09:55:24.321Z,3.25
2023-05-21T09:57:52.547Z,3.10
2023-05-21T10:00:28.765Z,3.90
2023-05-21T10:02:58.117Z,2.95
2023-05-21T10:05:30.391Z,3.30
2023-05-21T10:08:02.491Z,4.35
2023-05-21T10:10:32.197Z,3.00
2023-05-21T10:13:03.984Z,2.92
2023-05-21T10:15:47.377Z,2.90
2023-05-21T10:18:16.978Z,2.70
2023-05-21T10:20:44.643Z,2.00
2023-05-21T10:23:13.197Z,2.38
2023-05-21T10:25:40.601Z,2.90
2023-05-21T10:28:07.609Z,2.65
2023-05-21T10:30:36.870Z,1.77
2023-05-21T10:33:04.765Z,2.17
2023-05-21T10:35:34.091Z,2.17
2023-05-21T10:38:04.909Z,2.17
2023-05-21T10:40:32.043Z,2.35
2023-05-21T10:43:14.608Z,1.75
2023-05-21T10:46:33.599Z,2.67
2023-05-21T10:49:32.793Z,1.95
2023-05-21T10:52:43.484Z,2.20
2023-05-21T10:55:43.789Z,2.33
2023-05-21T10:58:31.700Z,3.45
2023-05-21T11:01:00.189Z,3.10
2023-05-21T11:03:28.983Z,3.28
2023-05-21T11:05:57.167Z,3.58
2023-05-21T11:08:29.169Z,3.28
2023-05-21T11:11:00.434Z,3.55
2023-05-21T11:13:28.786Z,3.33
2023-05-21T11:15:58.653Z,2.90
2023-05-21T11:18:40.482Z,3.20
2023-05-21T11:21:10.236Z,3.00
2023-05-21T11:23:51.814Z,3.72
2023-05-21T11:26:24.588Z,3.05
2023-05-21T11:29:11.956Z,3.67
2023-05-21T11:31:39.117Z,3.85
2023-05-21T11:34:15.264Z,3.78
2023-05-21T11:36:47.144Z,3.85
2023-05-21T11:39:17.881Z,3.72
2023-05-21T11:42:14.046Z,4.50
2023-05-21T11:44:46.202Z,4.63
2023-05-21T11:47:17.946Z,3.90
2023-05-21T11:49:46.457Z,5.38
2023-05-21T11:52:14.760Z,4.97
2023-05-21T11:54:51.931Z,4.50
2023-05-21T11:57:19.528Z,5.28
2023-05-21T11:59:47.179Z,4.32
2023-05-21T12:02:19.113Z,4.05
2023-05-21T12:04:48.701Z,4.60
2023-05-21T12:07:19.192Z,4.65
2023-05-21T12:09:48.869Z,5.85
2023-05-21T12:12:18.582Z,5.43
2023-05-21T12:14:48.102Z,4.72
2023-05-21T12:17:23.309Z,4.93
2023-05-21T12:19:53.509Z,5.60
2023-05-21T12:22:20.959Z,3.47
2023-05-21T12:24:48.955Z,3.20
2023-05-21T12:27:17.160Z,3.53
2023-05-21T12:29:46.802Z,4.63
2023-05-21T12:32:15.712Z,4.25
2023-05-21T12:34:54.891Z,3.78
2023-05-21T12:37:26.829Z,5.40
2023-05-21T12:39:56.446Z,4.63
2023-05-21T12:42:30.081Z,4.85
2023-05-21T12:44:58.311Z,4.10
2023-05-21T12:47:26.977Z,4.72
2023-05-21T12:49:58.286Z,4.53
2023-05-21T12:52:25.910Z,4.60
2023-05-21T12:54:56.736Z,4.43
2023-05-21T12:57:38.899Z,4.00
2023-05-21T13:00:07.597Z,4.47
2023-05-21T13:02:39.760Z,4.28
2023-05-21T13:05:09.805Z,3.80
2023-05-21T13:07:39.470Z,4.55
2023-05-21T13:10:07.928Z,3.60
2023-05-21T13:12:35.610Z,3.80
2023-05-21T13:15:05.209Z,3.92
2023-05-21T13:17:32.164Z,3.30
2023-05-21T13:20:20.665Z,3.55
2023-05-21T13:22:50.646Z,2.78
2023-05-21T13:25:22.198Z,3.42
2023-05-21T13:27:50.700Z,3.80
2023-05-21T13:30:18.867Z,3.50
2023-05-21T13:32:46.369Z,3.35
2023-05-21T13:35:13.706Z,3.20
2023-05-21T13:37:41.328Z,2.92
2023-05-21T13:40:17.118Z,2.53
2023-05-21T13:42:46.000Z,2.85
2023-05-21T13:45:15.684Z,2.28
2023-05-21T13:47:45.789Z,2.47
2023-05-21T13:50:13.436Z,3.25
2023-05-21T13:52:40.671Z,2.22
2023-05-21T13:55:08.455Z,2.30
2023-05-21T13:57:35.486Z,2.72
2023-05-21T14:00:04.060Z,2.00
2023-05-21T14:02:31.001Z,1.83
2023-05-21T14:04:57.979Z,2.00
2023-05-21T14:07:24.920Z,1.50
2023-05-21T14:09:52.547Z,1.85
2023-05-21T14:12:19.571Z,1.65
2023-05-21T14:14:46.450Z,2.10
2023-05-21T14:17:13.349Z,1.92
2023-05-21T14:19:40.241Z,2.35
2023-05-21T14:22:07.084Z,2.25
2023-05-21T14:24:33.952Z,2.22
2023-05-21T14:27:00.796Z,2.30
2023-05-21T14:29:27.754Z,2.00
2023-05-21T14:31:54.663Z,1.70
2023-05-21T14:34:21.599Z,1.75
2023-05-21T14:36:48.478Z,2.15
2023-05-21T14:39:15.666Z,1.77
2023-05-21T14:41:42.973Z,2.08
2023-05-21T14:44:09.877Z,1.63
2023-05-21T14:46:37.016Z,1.85
2023-05-21T14:49:04.138Z,2.03
2023-05-21T14:51:31.890Z,1.80
2023-05-21T14:53:58.967Z,1.77
2023-05-21T14:56:27.903Z,1.73
2023-05-21T14:58:55.177Z,2.03
2023-05-21T15:01:22.210Z,1.90
2023-05-21T15:03:49.523Z,2.20
2023-05-21T15:06:16.777Z,1.90
2023-05-21T15:08:43.782Z,1.73
2023-05-21T15:11:10.675Z,1.42
2023-05-21T15:13:38.894Z,1.58
2023-05-21T15:16:06.323Z,2.00
2023-05-21T15:18:33.414Z,1.80
2023-05-21T15:21:00.405Z,2.15
2023-05-21T15:23:27.253Z,2.10
2023-05-21T15:25:54.228Z,1.63
2023-05-21T15:28:21.122Z,1.48
2023-05-21T15:30:47.952Z,1.58
2023-05-21T15:33:14.875Z,1.83
2023-05-21T15:35:42.182Z,1.85
2023-05-21T15:38:09.513Z,2.05
2023-05-21T15:40:36.422Z,1.75
2023-05-21T15:43:03.338Z,1.23
2023-05-21T15:45:30.190Z,1.85
2023-05-21T15:47:57.402Z,2.15
2023-05-21T15:50:24.304Z,1.63
2023-05-21T15:52:53.361Z,2.20
2023-05-21T15:55:22.024Z,1.75
2023-05-21T15:57:48.922Z,2.30
2023-05-21T16:00:15.966Z,2.13
2023-05-21T16:02:42.938Z,1.92
2023-05-21T16:05:10.353Z,1.83
2023-05-21T16:07:38.398Z,2.45
2023-05-21T16:10:10.838Z,1.52
2023-05-21T16:12:38.606Z,2.20
2023-05-21T16:15:06.551Z,2.00
2023-05-21T16:17:33.515Z,1.83
2023-05-21T16:20:00.392Z,1.88
2023-05-21T16:22:27.276Z,2.17
2023-05-21T16:24:54.814Z,2.15
2023-05-21T16:27:21.804Z,1.75
2023-05-21T16:29:48.683Z,1.80
2023-05-21T16:32:16.232Z,1.85
2023-05-21T16:34:43.254Z,1.75
2023-05-21T16:37:10.195Z,1.83
2023-05-21T16:39:37.512Z,2.67
2023-05-21T16:42:04.823Z,2.05
2023-05-21T16:44:32.459Z,1.73
2023-05-21T16:47:00.382Z,1.77
2023-05-21T16:49:28.111Z,2.10
2023-05-21T16:51:55.048Z,1.70
2023-05-21T16:54:22.279Z,1.75
2023-05-21T16:56:49.328Z,2.50
2023-05-21T16:59:16.516Z,1.95
2023-05-21T17:01:43.473Z,2.28
2023-05-21T17:04:11.130Z,2.45
2023-05-21T17:06:38.005Z,1.98
2023-05-21T17:09:04.885Z,1.67
2023-05-21T17:11:31.813Z,1.83
2023-05-21T17:13:58.917Z,2.03
2023-05-21T17:16:25.768Z,2.03
2023-05-21T17:18:52.762Z,2.10
2023-05-21T17:21:19.992Z,2.03
2023-05-21T17:23:46.873Z,1.45
2023-05-21T17:26:14.115Z,1.92
2023-05-21T17:28:41.048Z,3.38
2023-05-21T17:31:09.736Z,1.92
2023-05-21T17:33:37.764Z,2.53
2023-05-21T17:36:04.989Z,2.53
2023-05-21T17:38:31.943Z,2.63
2023-05-21T17:40:59.509Z,1.77
2023-05-21T17:43:27.839Z,2.47
2023-05-21T17:45:54.766Z,2.30
2023-05-21T17:48:21.826Z,2.70
2023-05-21T17:50:48.862Z,2.40
2023-05-21T17:53:16.338Z,2.63
2023-05-21T17:55:43.338Z,2.13
2023-05-21T17:58:10.274Z,1.85
2023-05-21T18:00:37.210Z,2.20
2023-05-21T18:03:04.545Z,2.25
2023-05-21T18:05:31.512Z,2.58
2023-05-21T18:08:01.402Z,2.40
2023-05-21T18:10:28.881Z,2.80
2023-05-21T18:12:55.952Z,2.63
2023-05-21T18:15:23.007Z,2.88
2023-05-21T18:17:49.911Z,2.38
2023-05-21T18:20:17.020Z,1.98
2023-05-21T18:22:45.161Z,2.35
2023-05-21T18:25:12.057Z,2.38
2023-05-21T18:27:38.956Z,2.42
2023-05-21T18:30:07.189Z,2.88
2023-05-21T18:32:38.880Z,2.30
2023-05-21T18:35:11.895Z,2.00
2023-05-21T18:37:41.783Z,3.03
2023-05-21T18:40:09.427Z,2.03
2023-05-21T18:42:36.476Z,1.95
2023-05-21T18:45:10.567Z,2.38
2023-05-21T18:47:39.363Z,2.63
2023-05-21T18:50:13.888Z,2.70
2023-05-21T18:52:40.810Z,3.50
2023-05-21T18:55:08.408Z,2.67
2023-05-21T18:57:35.309Z,2.70
2023-05-21T19:00:02.221Z,2.83
2023-05-21T19:02:29.933Z,2.63
2023-05-21T19:04:56.869Z,2.38
2023-05-21T19:07:23.825Z,2.97
2023-05-21T19:09:50.741Z,2.58
2023-05-21T19:12:17.601Z,3.03
2023-05-21T19:14:45.184Z,2.88
2023-05-21T19:17:13.807Z,3.15
2023-05-21T19:19:40.785Z,2.50
2023-05-21T19:22:07.895Z,3.35
2023-05-21T19:24:34.810Z,3.20
2023-05-21T19:27:01.647Z,2.08
2023-05-21T19:29:28.903Z,2.92
2023-05-21T19:31:57.478Z,2.38
2023-05-21T19:34:24.481Z,2.88
2023-05-21T19:36:53.835Z,2.30
2023-05-21T19:39:21.794Z,3.78
2023-05-21T19:41:48.711Z,2.90
2023-05-21T19:44:15.625Z,3.03
2023-05-21T19:46:42.523Z,3.05
2023-05-21T19:49:11.235Z,2.28
2023-05-21T19:51:38.182Z,2.05
2023-05-21T19:54:05.017Z,2.70
2023-05-21T19:56:31.884Z,3.38
2023-05-21T19:58:58.747Z,2.58
2023-05-21T20:01:25.844Z,2.88
2023-05-21T20:03:52.869Z,2.72
2023-05-21T20:06:20.893Z,3.25
2023-05-21T20:08:48.163Z,3.15
2023-05-21T20:11:15.175Z,2.75
2023-05-21T20:13:42.487Z,3.28
2023-05-21T20:16:10.736Z,2.63
2023-05-21T20:18:37.696Z,2.92
2023-05-21T20:21:06.568Z,3.35
2023-05-21T20:23:33.484Z,2.85
2023-05-21T20:26:00.339Z,3.20
2023-05-21T20:28:27.209Z,2.88
2023-05-21T20:30:59.852Z,3.05
2023-05-21T20:33:28.147Z,3.10
2023-05-21T20:35:54.991Z,2.55
2023-05-21T20:38:22.238Z,2.88
2023-05-21T20:40:49.129Z,3.97
2023-05-21T20:43:16.097Z,3.33
2023-05-21T20:45:43.806Z,3.15
2023-05-21T20:48:12.174Z,3.45
2023-05-21T20:50:41.155Z,2.90
2023-05-21T20:53:08.749Z,3.63
2023-05-21T20:55:35.641Z,2.90
2023-05-21T20:58:05.929Z,3.25
2023-05-21T21:00:33.534Z,2.92
2023-05-21T21:03:03.909Z,3.20
2023-05-21T21:05:31.173Z,3.15
2023-05-21T21:08:02.589Z,3.33
2023-05-21T21:10:29.490Z,3.40
2023-05-21T21:12:56.357Z,3.28
2023-05-21T21:15:23.207Z,3.42
2023-05-21T21:17:50.150Z,3.70
2023-05-21T21:20:17.934Z,3.17
2023-05-21T21:22:45.613Z,2.90
2023-05-21T21:25:14.320Z,3.50
2023-05-21T21:27:42.610Z,3.03
2023-05-21T21:30:10.250Z,3.53
2023-05-21T21:32:37.330Z,3.30
2023-05-21T21:35:04.626Z,3.25
2023-05-21T21:37:31.486Z,4.13
2023-05-21T21:39:58.342Z,2.92
2023-05-21T21:42:25.242Z,2.95
2023-05-21T21:44:52.094Z,3.38
2023-05-21T21:47:18.955Z,4.07
2023-05-21T21:49:45.837Z,3.53
2023-05-21T21:52:14.877Z,3.65
2023-05-21T21:54:41.737Z,3.50
2023-05-21T21:57:08.643Z,3.08
2023-05-21T21:59:38.597Z,3.05
2023-05-21T22:02:06.342Z,3.80
2023-05-21T22:04:33.299Z,3.92
2023-05-21T22:07:00.254Z,3.70
2023-05-21T22:09:27.243Z,2.80
2023-05-21T22:11:54.136Z,3.50
2023-05-21T22:14:20.990Z,3.83
2023-05-21T22:16:48.034Z,4.05
2023-05-21T22:19:16.243Z,3.95
2023-05-21T22:21:43.453Z,3.63
2023-05-21T22:24:24.169Z,3.97
2023-05-21T22:26:57.109Z,4.30
2023-05-21T22:29:23.983Z,3.40
2023-05-21T22:31:50.999Z,3.38
2023-05-21T22:34:17.877Z,3.55
2023-05-21T22:36:44.919Z,3.88
2023-05-21T22:39:11.775Z,4.03
2023-05-21T22:41:38.653Z,3.88
2023-05-21T22:44:05.549Z,3.15
2023-05-21T22:46:32.474Z,3.83
2023-05-21T22:49:00.345Z,3.53
2023-05-21T22:51:29.043Z,3.45
2023-05-21T22:53:56.151Z,3.60
2023-05-21T22:56:23.009Z,3.20
2023-05-21T22:58:49.930Z,3.58
2023-05-21T23:01:16.885Z,4.03
2023-05-21T23:03:43.736Z,3.63
2023-05-21T23:06:10.658Z,4.00
2023-05-21T23:08:37.677Z,3.75
2023-05-21T23:11:04.578Z,3.78
2023-05-21T23:13:31.436Z,3.75
2023-05-21T23:15:59.084Z,3.72
2023-05-21T23:18:26.415Z,3.67
2023-05-21T23:20:53.320Z,3.80
2023-05-21T23:23:20.195Z,3.88
2023-05-21T23:25:47.078Z,3.50
2023-05-21T23:28:13.917Z,3.83
2023-05-21T23:30:40.943Z,3.70
2023-05-21T23:33:07.969Z,3.72
2023-05-21T23:35:34.886Z,3.80
2023-05-21T23:38:01.808Z,4.07
2023-05-21T23:40:28.662Z,4.15
2023-05-21T23:42:55.514Z,4.22
2023-05-21T23:45:22.597Z,3.50
2023-05-21T23:47:49.509Z,3.88
2023-05-21T23:50:16.736Z,4.03
2023-05-21T23:52:43.730Z,4.07
2023-05-21T23:55:12.820Z,3.80
2023-05-21T23:57:39.696Z,3.55
